Time;durP1;ratioP1;P1;durP2;ratioP2;P2;SDS_P1;SDS_P2;PMS_P1;PMS_P2;Temp;Humidity;BMP_temperature;BMP_pressure;BME280_temperature;BME280_humidity;BME280_pressure;Samples;Min_cycle;Max_cycle;Signal;HPM_P1;HPM_P2
2021/07/23 00:01:01;;;;;;;;;;;;;;;23.94;58.32;100927.00;5058395;28;1907;-39
2021/07/23 00:03:27;;;;;;;;;;;;;;;23.87;58.35;100944.88;5069569;28;1906;-39
2021/07/23 00:05:57;;;;;;;;;;;;;;;23.89;58.31;100941.00;5067753;28;1734;-39
2021/07/23 00:08:23;;;;;;;;;;;;;;;23.89;57.83;100942.84;5068534;28;1023;-39
2021/07/23 00:10:54;;;;;;;;;;;;;;;23.91;57.54;100946.25;5066833;28;1669;-39
2021/07/23 00:13:23;;;;;;;;;;;;;;;23.94;57.82;100951.31;5059493;28;1825;-39
2021/07/23 00:15:51;;;;;;;;;;;;;;;23.97;57.22;100943.75;5062206;28;1790;-39
2021/07/23 00:18:20;;;;;;;;;;;;;;;24.00;57.34;100942.56;5063656;28;1941;-39
2021/07/23 00:20:55;;;;;;;;;;;;;;;24.01;57.53;100955.03;5062798;28;1768;-39
2021/07/23 00:23:22;;;;;;;;;;;;;;;24.06;56.64;100947.31;5065741;28;1909;-39
2021/07/23 00:25:49;;;;;;;;;;;;;;;24.07;56.96;100940.88;5064242;28;1982;-39
2021/07/23 00:28:20;;;;;;;;;;;;;;;24.05;57.12;100942.06;5056907;28;1821;-39
2021/07/23 00:30:46;;;;;;;;;;;;;;;24.05;57.20;100942.06;5065612;28;1589;-39
2021/07/23 00:35:57;;;;;;;;;;;;;;;24.02;56.94;100940.53;5065539;28;2323;-39
2021/07/23 00:38:24;;;;;;;;;;;;;;;23.88;57.02;100939.31;5054344;28;1131;-39
2021/07/23 00:40:51;;;;;;;;;;;;;;;23.87;57.30;100934.91;5062957;28;1911;-39
2021/07/23 00:43:30;;;;;;;;;;;;;;;23.92;57.26;100942.53;5067245;28;1909;-39
2021/07/23 00:46:00;;;;;;;;;;;;;;;23.91;57.09;100930.88;5063514;28;1866;-39
2021/07/23 00:48:27;;;;;;;;;;;;;;;23.94;57.12;100938.66;5062632;28;1564;-39
2021/07/23 00:51:04;;;;;;;;;;;;;;;23.95;56.88;100934.09;5064390;28;1682;-39
2021/07/23 00:53:33;;;;;;;;;;;;;;;23.96;57.22;100933.09;5073339;28;1063;-39
2021/07/23 00:55:59;;;;;;;;;;;;;;;23.99;56.76;100927.34;5059933;28;1950;-39
2021/07/23 00:58:29;;;;;;;;;;;;;;;24.00;57.31;100938.00;5070828;28;2041;-39
2021/07/23 01:00:57;;;;;;;;;;;;;;;23.99;57.09;100922.81;5061137;28;1725;-39
2021/07/23 01:03:24;;;;;;;;;;;;;;;24.02;57.32;100933.28;5069364;28;1914;-39
2021/07/23 01:05:54;;;;;;;;;;;;;;;24.02;56.97;100930.56;5066841;28;1713;-39
2021/07/23 01:08:31;;;;;;;;;;;;;;;24.01;56.67;100934.31;5066302;28;1067;-39
2021/07/23 01:10:59;;;;;;;;;;;;;;;23.95;57.06;100934.09;5056741;28;1729;-39
2021/07/23 01:13:31;;;;;;;;;;;;;;;23.91;57.38;100932.72;5060782;28;1865;-39
2021/07/23 01:15:58;;;;;;;;;;;;;;;23.94;57.28;100937.81;5065286;28;1541;-39
2021/07/23 01:18:24;;;;;;;;;;;;;;;23.93;57.81;100939.66;5067851;28;1586;-39
2021/07/23 01:20:52;;;;;;;;;;;;;;;23.94;57.88;100932.41;5062020;28;1759;-39
2021/07/23 01:23:26;;;;;;;;;;;;;;;23.95;57.46;100937.63;5061880;28;1970;-39
2021/07/23 01:25:53;;;;;;;;;;;;;;;23.99;57.31;100939.03;5066762;28;2008;-39
2021/07/23 01:28:30;;;;;;;;;;;;;;;23.99;57.50;100930.06;5059838;28;1777;-39
2021/07/23 01:31:01;;;;;;;;;;;;;;;23.97;57.47;100923.97;5066297;28;1590;-39
2021/07/23 01:33:31;;;;;;;;;;;;;;;23.97;57.65;100923.97;5069704;28;1440;-39
2021/07/23 01:35:59;;;;;;;;;;;;;;;23.98;57.55;100940.03;5069375;28;1921;-39
2021/07/23 01:38:36;;;;;;;;;;;;;;;23.96;57.48;100916.88;5056548;28;1059;-39
2021/07/23 01:41:06;;;;;;;;;;;;;;;23.96;57.67;100925.00;5072564;28;1771;-39
2021/07/23 01:43:33;;;;;;;;;;;;;;;23.99;57.37;100930.06;5074887;28;1927;-39
2021/07/23 01:46:00;;;;;;;;;;;;;;;23.94;57.63;100913.50;5062670;28;1824;-39
2021/07/23 01:48:30;;;;;;;;;;;;;;;23.89;57.69;100918.53;5062503;28;1463;-39
2021/07/23 01:50:59;;;;;;;;;;;;;;;23.92;57.71;100934.44;5065623;28;1834;-39
2021/07/23 01:53:28;;;;;;;;;;;;;;;23.89;58.31;100940.16;5072501;28;1120;-39
2021/07/23 01:55:58;;;;;;;;;;;;;;;23.88;58.17;100914.16;5058172;28;1924;-39
2021/07/23 01:58:26;;;;;;;;;;;;;;;23.87;58.26;100918.69;5058207;28;1514;-39
2021/07/23 02:00:57;;;;;;;;;;;;;;;23.89;58.25;100930.19;5152046;23;3795;-40
2021/07/23 02:03:25;;;;;;;;;;;;;;;23.90;57.91;100928.34;5026435;28;1907;-39
2021/07/23 02:05:52;;;;;;;;;;;;;;;23.94;57.59;100929.72;5015526;28;1071;-40
2021/07/23 02:08:19;;;;;;;;;;;;;;;23.92;57.79;100932.56;5016313;28;1853;-39
2021/07/23 02:10:51;;;;;;;;;;;;;;;23.84;57.83;100927.16;5033478;28;1865;-40
2021/07/23 02:13:24;;;;;;;;;;;;;;;23.81;57.94;100931.03;5034154;28;1545;-39
2021/07/23 02:16:12;;;;;;;;;;;;;;;23.84;58.08;100934.41;5032854;28;1786;-40
2021/07/23 02:18:39;;;;;;;;;;;;;;;23.87;57.46;100937.59;5017040;28;1024;-39
2021/07/23 02:21:08;;;;;;;;;;;;;;;23.87;57.08;100931.38;5031060;28;1739;-39
2021/07/23 02:23:35;;;;;;;;;;;;;;;23.85;57.45;100941.50;5033997;28;1978;-40
2021/07/23 02:26:03;;;;;;;;;;;;;;;23.87;57.17;100936.78;5016545;28;1860;-40
2021/07/23 02:28:36;;;;;;;;;;;;;;;23.81;57.44;100928.34;5029399;28;1660;-39
2021/07/23 02:31:08;;;;;;;;;;;;;;;23.82;57.51;100935.41;5020047;28;1855;-40
2021/07/23 02:34:03;;;;;;;;;;;;;;;23.80;57.78;100926.63;5014746;28;1898;-39
2021/07/23 02:36:29;;;;;;;;;;;;;;;23.78;57.63;100933.22;5030955;28;1752;-40
2021/07/23 02:38:56;;;;;;;;;;;;;;;23.80;57.53;100948.22;5033536;28;1776;-39
2021/07/23 02:41:24;;;;;;;;;;;;;;;23.75;57.15;100950.53;5033698;28;1674;-40
2021/07/23 02:43:53;;;;;;;;;;;;;;;23.75;57.35;100939.72;5022355;28;1898;-39
2021/07/23 02:46:21;;;;;;;;;;;;;;;23.71;57.37;100943.75;5015212;28;1868;-40
2021/07/23 02:48:47;;;;;;;;;;;;;;;23.67;57.63;100931.59;5031292;28;2180;-39
2021/07/23 02:51:15;;;;;;;;;;;;;;;23.66;57.66;100946.13;5031927;28;1443;-39
2021/07/23 02:53:48;;;;;;;;;;;;;;;23.68;57.71;100944.09;5033348;28;1580;-39
2021/07/23 02:56:18;;;;;;;;;;;;;;;23.64;57.29;100945.44;5030552;28;1550;-40
2021/07/23 02:58:47;;;;;;;;;;;;;;;23.68;57.72;100959.47;5012350;28;1869;-39
2021/07/23 03:01:16;;;;;;;;;;;;;;;23.66;57.13;100948.81;5025878;28;1791;-40
2021/07/23 03:03:47;;;;;;;;;;;;;;;23.63;57.44;100946.44;5015378;28;2301;-39
2021/07/23 03:06:14;;;;;;;;;;;;;;;23.67;57.22;100946.97;5015240;28;1947;-40
2021/07/23 03:08:40;;;;;;;;;;;;;;;23.66;56.99;100945.28;5014078;28;1405;-40
2021/07/23 03:11:08;;;;;;;;;;;;;;;23.63;57.45;100943.72;5026017;28;1555;-39
2021/07/23 03:13:34;;;;;;;;;;;;;;;23.64;57.20;100942.75;5029694;28;1761;-40
2021/07/23 03:16:01;;;;;;;;;;;;;;;23.64;57.38;100942.75;5029344;28;1641;-39
2021/07/23 03:18:33;;;;;;;;;;;;;;;23.62;57.18;100944.75;5021727;28;1723;-40
2021/07/23 03:21:01;;;;;;;;;;;;;;;23.54;57.36;100933.91;5029989;28;1802;-40
2021/07/23 03:23:28;;;;;;;;;;;;;;;23.43;57.70;100930.47;5030836;28;1906;-40
2021/07/23 03:25:55;;;;;;;;;;;;;;;23.32;57.57;100948.81;5015344;28;1983;-39
2021/07/23 03:28:23;;;;;;;;;;;;;;;23.31;57.66;100952.50;5028688;28;1650;-39
2021/07/23 03:30:51;;;;;;;;;;;;;;;23.29;57.83;100966.16;5020555;28;1864;-39
2021/07/23 03:33:26;;;;;;;;;;;;;;;23.32;57.32;100949.66;5024361;28;1570;-40
2021/07/23 03:35:58;;;;;;;;;;;;;;;23.41;57.40;100954.06;5014707;28;2089;-40
2021/07/23 03:38:26;;;;;;;;;;;;;;;23.51;57.39;100953.97;5029286;28;1770;-39
2021/07/23 03:40:53;;;;;;;;;;;;;;;23.57;57.31;100958.72;5032183;28;2012;-40
2021/07/23 03:43:21;;;;;;;;;;;;;;;23.46;57.31;100955.44;5017663;28;1906;-39
2021/07/23 03:45:48;;;;;;;;;;;;;;;23.42;57.29;100963.03;5032078;28;1719;-39
2021/07/23 03:48:16;;;;;;;;;;;;;;;23.38;57.21;100965.22;5032180;28;1794;-39
2021/07/23 03:50:42;;;;;;;;;;;;;;;23.46;57.19;100959.00;5028321;28;1619;-39
2021/07/23 03:53:14;;;;;;;;;;;;;;;23.46;57.54;100968.94;5032487;28;1079;-39
2021/07/23 03:55:44;;;;;;;;;;;;;;;23.49;57.88;100969.47;5044234;28;1703;-39
2021/07/23 03:58:11;;;;;;;;;;;;;;;23.60;58.35;100976.47;5034751;28;1663;-40
2021/07/23 04:00:40;;;;;;;;;;;;;;;23.66;57.58;100970.41;5021180;28;1552;-39
2021/07/23 04:03:19;;;;;;;;;;;;;;;23.72;57.50;100983.28;5012832;28;1906;-39
2021/07/23 04:05:46;;;;;;;;;;;;;;;23.74;57.62;100983.94;5026753;28;1678;-40
2021/07/23 04:08:18;;;;;;;;;;;;;;;23.78;58.03;100977.25;5024139;28;3425;-39
2021/07/23 04:10:44;;;;;;;;;;;;;;;23.73;57.16;100990.34;5021442;28;2665;-39
2021/07/23 04:13:11;;;;;;;;;;;;;;;23.70;57.00;100968.25;5022736;28;1988;-39
2021/07/23 04:15:40;;;;;;;;;;;;;;;23.67;57.49;100972.09;5029345;28;1484;-39
2021/07/23 04:18:07;;;;;;;;;;;;;;;23.69;57.68;100974.63;5026869;28;1638;-40
2021/07/23 04:20:37;;;;;;;;;;;;;;;23.71;57.43;100992.38;5023913;28;1667;-39
2021/07/23 04:23:32;;;;;;;;;;;;;;;23.72;57.42;100980.56;5012546;28;1914;-39
2021/07/23 04:26:08;;;;;;;;;;;;;;;23.76;57.56;100986.50;5014346;28;1935;-39
2021/07/23 04:28:37;;;;;;;;;;;;;;;23.80;57.98;100975.25;5029520;28;1936;-39
2021/07/23 04:31:05;;;;;;;;;;;;;;;23.79;57.53;100968.13;5012817;28;1651;-39
2021/07/23 04:33:32;;;;;;;;;;;;;;;23.66;57.43;100978.53;5019311;28;1942;-39
2021/07/23 04:36:02;;;;;;;;;;;;;;;23.71;57.78;100980.72;5030587;28;1838;-39
2021/07/23 04:38:41;;;;;;;;;;;;;;;23.79;57.54;100984.31;5032915;28;1104;-39
2021/07/23 04:41:13;;;;;;;;;;;;;;;23.86;57.26;100973.75;5028700;28;1096;-39
2021/07/23 04:43:39;;;;;;;;;;;;;;;23.96;57.32;100974.44;5013427;28;2055;-39
2021/07/23 04:46:10;;;;;;;;;;;;;;;24.07;57.46;100980.56;5035419;28;1920;-40
2021/07/23 04:48:36;;;;;;;;;;;;;;;24.16;57.77;100963.38;5019696;28;2103;-39
2021/07/23 04:51:03;;;;;;;;;;;;;;;24.01;57.07;100972.13;5021620;28;2063;-40
2021/07/23 04:53:31;;;;;;;;;;;;;;;24.02;56.84;100970.25;5028414;28;1305;-40
2021/07/23 04:56:00;;;;;;;;;;;;;;;24.08;56.43;100976.88;5017704;28;1877;-40
2021/07/23 04:58:27;;;;;;;;;;;;;;;24.15;56.48;100981.44;5028423;28;1755;-40
2021/07/23 05:00:53;;;;;;;;;;;;;;;24.24;56.23;100970.66;5029152;28;1535;-40
2021/07/23 05:03:20;;;;;;;;;;;;;;;24.18;56.56;100981.09;5023235;28;1954;-40
2021/07/23 05:05:47;;;;;;;;;;;;;;;24.14;56.97;100974.34;5024874;28;1093;-40
2021/07/23 05:08:13;;;;;;;;;;;;;;;24.17;56.63;100981.25;5030032;28;1883;-40
2021/07/23 05:10:42;;;;;;;;;;;;;;;24.17;56.11;100967.75;5031287;28;1504;-40
2021/07/23 05:13:09;;;;;;;;;;;;;;;24.27;56.09;100981.13;5023942;28;1834;-40
2021/07/23 05:15:35;;;;;;;;;;;;;;;24.19;56.07;100979.25;5030508;28;1629;-40
2021/07/23 05:18:02;;;;;;;;;;;;;;;23.31;57.19;100974.09;5029054;28;1609;-40
2021/07/23 05:20:28;;;;;;;;;;;;;;;22.55;58.39;100972.78;5033062;28;1541;-40
2021/07/23 05:22:55;;;;;;;;;;;;;;;22.23;58.18;100976.81;5034564;28;1629;-39
2021/07/23 05:25:21;;;;;;;;;;;;;;;21.99;58.31;100974.69;5030634;28;1902;-39
2021/07/23 05:27:49;;;;;;;;;;;;;;;21.98;58.12;100998.06;5031015;28;1614;-39
2021/07/23 05:30:16;;;;;;;;;;;;;;;21.92;58.22;100987.88;5027468;28;1695;-39
2021/07/23 05:32:42;;;;;;;;;;;;;;;21.99;58.37;100989.00;5030708;28;1794;-41
2021/07/23 05:35:10;;;;;;;;;;;;;;;22.02;58.04;101001.31;5024272;28;1555;-40
2021/07/23 05:37:36;;;;;;;;;;;;;;;22.00;58.95;100989.84;5034184;28;1551;-40
2021/07/23 05:40:03;;;;;;;;;;;;;;;21.97;58.38;100991.00;5028910;28;1644;-40
2021/07/23 05:42:29;;;;;;;;;;;;;;;22.00;58.33;100997.91;5028205;28;1644;-39
2021/07/23 05:44:57;;;;;;;;;;;;;;;22.06;58.31;100986.53;5025604;28;1941;-39
2021/07/23 05:47:23;;;;;;;;;;;;;;;21.94;57.93;100993.13;5025616;28;1566;-40
2021/07/23 05:49:50;;;;;;;;;;;;;;;21.89;58.37;100981.97;5025319;28;1713;-40
2021/07/23 05:52:16;;;;;;;;;;;;;;;21.84;57.75;100980.59;5025922;28;1154;-40
2021/07/23 05:54:43;;;;;;;;;;;;;;;21.88;57.84;100993.72;5028370;28;1887;-40
2021/07/23 05:57:09;;;;;;;;;;;;;;;21.82;57.74;100996.00;5024955;28;1563;-40
2021/07/23 05:59:35;;;;;;;;;;;;;;;21.82;57.61;100990.63;5026134;28;1674;-40
2021/07/23 06:02:03;;;;;;;;;;;;;;;21.84;57.97;100983.28;5023188;28;1349;-39
2021/07/23 06:04:30;;;;;;;;;;;;;;;21.87;57.95;100989.38;5021749;28;2041;-39
2021/07/23 06:06:56;;;;;;;;;;;;;;;21.99;57.63;100988.16;5023568;28;1743;-39
2021/07/23 06:09:23;;;;;;;;;;;;;;;22.19;57.45;100999.66;5022855;28;1680;-40
2021/07/23 06:11:49;;;;;;;;;;;;;;;22.42;58.14;100989.31;5024515;28;1694;-40
2021/07/23 06:14:16;;;;;;;;;;;;;;;22.58;58.28;100997.59;5024272;28;1566;-40
2021/07/23 06:16:42;;;;;;;;;;;;;;;22.71;58.38;100993.66;5025545;28;2085;-40
2021/07/23 06:19:10;;;;;;;;;;;;;;;22.73;58.35;100986.28;5023176;28;1066;-39
2021/07/23 06:21:36;;;;;;;;;;;;;;;22.75;57.38;100995.88;5026791;28;1630;-41
2021/07/23 06:24:03;;;;;;;;;;;;;;;22.60;57.64;100990.22;5015094;28;1975;-39
2021/07/23 06:26:29;;;;;;;;;;;;;;;22.40;58.48;100996.72;5023502;28;1750;-40
2021/07/23 06:28:56;;;;;;;;;;;;;;;22.24;58.52;100992.88;5025044;28;1547;-40
2021/07/23 06:31:22;;;;;;;;;;;;;;;22.12;59.32;100985.09;5025198;28;1858;-40
2021/07/23 06:33:49;;;;;;;;;;;;;;;22.01;59.53;100995.09;5025549;28;1879;-40
2021/07/23 06:36:17;;;;;;;;;;;;;;;22.16;58.88;100992.75;5024443;28;1843;-40
2021/07/23 06:38:43;;;;;;;;;;;;;;;22.24;58.04;101008.16;5014866;28;1696;-39
2021/07/23 06:41:10;;;;;;;;;;;;;;;22.34;58.03;100997.31;5022622;28;1115;-39
2021/07/23 06:43:36;;;;;;;;;;;;;;;22.36;57.94;100993.50;5025251;28;1969;-40
2021/07/23 06:46:02;;;;;;;;;;;;;;;22.37;57.96;100997.03;5023355;28;1865;-40
2021/07/23 06:48:29;;;;;;;;;;;;;;;22.36;57.23;100995.31;5018984;28;1953;-40
2021/07/23 06:50:55;;;;;;;;;;;;;;;22.46;57.67;101000.66;5025396;28;1751;-40
2021/07/23 06:53:23;;;;;;;;;;;;;;;22.48;58.01;100993.25;5017677;28;1182;-39
2021/07/23 06:55:49;;;;;;;;;;;;;;;22.30;58.00;100991.38;5025389;28;1999;-41
2021/07/23 06:58:16;;;;;;;;;;;;;;;22.16;58.48;100990.06;5024026;28;1949;-39
2021/07/23 07:00:42;;;;;;;;;;;;;;;21.86;58.49;100980.41;5021997;28;1672;-39
2021/07/23 07:03:09;;;;;;;;;;;;;;;21.83;59.26;100999.56;5016090;28;2082;-40
2021/07/23 07:05:35;;;;;;;;;;;;;;;21.87;59.02;100998.28;5022039;28;1981;-40
2021/07/23 07:08:02;;;;;;;;;;;;;;;21.93;58.54;100995.00;5024830;28;1099;-40
2021/07/23 07:10:30;;;;;;;;;;;;;;;21.88;58.24;100985.66;5018965;28;1654;-39
2021/07/23 07:12:57;;;;;;;;;;;;;;;22.04;58.52;100978.63;5023051;28;1491;-40
2021/07/23 07:15:23;;;;;;;;;;;;;;;22.26;58.58;100989.16;5026927;28;1814;-40
2021/07/23 07:17:55;;;;;;;;;;;;;;;22.46;59.72;100985.31;5020976;28;1637;-39
2021/07/23 07:20:21;;;;;;;;;;;;;;;22.63;60.26;100986.34;5022367;28;1763;-40
2021/07/23 07:22:48;;;;;;;;;;;;;;;22.73;60.80;100981.72;5024593;28;1015;-39
2021/07/23 07:25:14;;;;;;;;;;;;;;;22.82;61.48;100979.97;5024856;28;2007;-40
2021/07/23 07:27:42;;;;;;;;;;;;;;;22.90;64.15;100971.06;5021387;28;1926;-40
2021/07/23 07:30:09;;;;;;;;;;;;;;;22.98;64.33;100963.06;5020928;28;1549;-40
2021/07/23 07:32:35;;;;;;;;;;;;;;;23.15;65.11;100962.19;5022491;28;1602;-40
2021/07/23 07:35:01;;;;;;;;;;;;;;;23.41;65.08;100969.44;5024136;28;1606;-40
2021/07/23 07:37:29;;;;;;;;;;;;;;;23.57;64.84;100963.28;5024243;28;1143;-40
2021/07/23 07:39:56;;;;;;;;;;;;;;;23.73;64.63;100974.16;5026486;28;1635;-40
2021/07/23 07:42:22;;;;;;;;;;;;;;;23.74;64.76;100978.56;5022068;28;1767;-40
2021/07/23 07:44:50;;;;;;;;;;;;;;;23.74;64.91;100975.00;5023436;28;1902;-40
2021/07/23 07:47:16;;;;;;;;;;;;;;;23.74;64.99;100975.84;5032892;28;1863;-40
2021/07/23 07:49:43;;;;;;;;;;;;;;;23.84;64.38;100969.53;5023379;28;1789;-39
2021/07/23 07:52:10;;;;;;;;;;;;;;;23.90;64.43;100963.47;5021848;28;1096;-40
2021/07/23 07:54:36;;;;;;;;;;;;;;;23.93;63.89;100971.22;5017442;28;1827;-39
2021/07/23 07:57:06;;;;;;;;;;;;;;;23.70;62.26;100971.78;5020062;28;1589;-40
2021/07/23 07:59:32;;;;;;;;;;;;;;;23.35;62.30;100981.69;5021262;28;1438;-39
2021/07/23 08:02:00;;;;;;;;;;;;;;;23.13;62.35;100966.06;5022249;28;1764;-40
2021/07/23 08:04:27;;;;;;;;;;;;;;;23.10;62.00;100959.13;5021790;28;1981;-40
2021/07/23 08:06:53;;;;;;;;;;;;;;;23.07;61.87;100977.47;5023763;28;1003;-39
2021/07/23 08:09:20;;;;;;;;;;;;;;;22.91;61.85;100957.44;5015250;28;1949;-40
2021/07/23 08:11:47;;;;;;;;;;;;;;;22.90;61.65;100960.28;5027327;28;1666;-40
2021/07/23 08:14:13;;;;;;;;;;;;;;;22.90;61.62;100963.84;5029761;28;1496;-40
2021/07/23 08:16:40;;;;;;;;;;;;;;;22.97;64.34;100977.53;5022603;28;1709;-40
2021/07/23 08:19:09;;;;;;;;;;;;;;;23.06;64.61;100975.75;5025377;28;1492;-40
2021/07/23 08:21:35;;;;;;;;;;;;;;;22.75;62.69;100973.47;5025405;28;1608;-40
2021/07/23 08:24:02;;;;;;;;;;;;;;;22.16;61.79;100965.81;5030011;28;1906;-39
2021/07/23 08:26:28;;;;;;;;;;;;;;;21.90;61.23;100983.66;5021530;28;1768;-40
2021/07/23 08:28:55;;;;;;;;;;;;;;;21.62;60.47;100970.19;5027064;28;1444;-40
2021/07/23 08:31:21;;;;;;;;;;;;;;;21.50;60.55;100976.75;5028263;28;1420;-40
2021/07/23 08:33:48;;;;;;;;;;;;;;;21.44;59.65;100972.78;5026559;28;1675;-39
2021/07/23 08:36:16;;;;;;;;;;;;;;;21.55;59.17;100969.94;5029358;28;1642;-40
2021/07/23 08:38:42;;;;;;;;;;;;;;;21.67;59.10;100977.84;5032828;28;1478;-40
2021/07/23 08:41:10;;;;;;;;;;;;;;;21.67;58.31;100954.44;5016779;28;1940;-40
2021/07/23 08:43:40;;;;;;;;;;;;;;;21.63;58.53;100961.13;5033594;28;1729;-39
2021/07/23 08:46:08;;;;;;;;;;;;;;;21.72;59.19;100976.38;5032745;28;1906;-39
2021/07/23 08:48:37;;;;;;;;;;;;;;;21.68;59.13;100960.69;5034774;28;1629;-40
2021/07/23 08:51:06;;;;;;;;;;;;;;;21.73;58.92;100966.47;5031137;28;1473;-40
2021/07/23 08:53:35;;;;;;;;;;;;;;;21.67;59.63;100956.31;5034861;28;1602;-39
2021/07/23 08:56:02;;;;;;;;;;;;;;;21.70;58.56;100956.81;5035404;28;1967;-39
2021/07/23 08:58:38;;;;;;;;;;;;;;;21.73;58.79;100961.94;5031439;28;1941;-39
2021/07/23 09:01:09;;;;;;;;;;;;;;;21.70;58.48;100964.91;5029715;28;1471;-39
2021/07/23 09:03:35;;;;;;;;;;;;;;;21.85;58.59;100959.88;5021652;28;2034;-39
2021/07/23 09:06:16;;;;;;;;;;;;;;;21.81;58.44;100970.09;5029564;28;1914;-39
2021/07/23 09:08:49;;;;;;;;;;;;;;;21.80;58.33;100957.63;5036441;28;1484;-40
2021/07/23 09:11:25;;;;;;;;;;;;;;;21.65;59.23;100943.81;5036899;28;990;-39
2021/07/23 09:16:57;;;;;;;;;;;;;;;21.69;59.25;100960.53;5030709;28;1815;-40
2021/07/23 09:19:24;;;;;;;;;;;;;;;21.68;59.25;100953.44;5030128;28;1530;-39
2021/07/23 09:21:58;;;;;;;;;;;;;;;21.69;58.18;100939.00;5033211;28;1121;-39
2021/07/23 09:24:49;;;;;;;;;;;;;;;21.72;58.57;100951.31;5035218;28;1952;-39
2021/07/23 09:27:31;;;;;;;;;;;;;;;21.79;59.03;100938.97;5035236;28;1772;-39
2021/07/23 09:29:58;;;;;;;;;;;;;;;21.68;58.48;100931.91;5027116;28;1560;-39
2021/07/23 09:32:29;;;;;;;;;;;;;;;21.67;59.34;100935.59;5032749;28;1525;-39
2021/07/23 09:35:09;;;;;;;;;;;;;;;21.63;58.46;100932.38;5033199;28;1628;-40
2021/07/23 09:37:52;;;;;;;;;;;;;;;21.60;58.96;100934.50;5035563;28;1584;-39
2021/07/23 09:40:43;;;;;;;;;;;;;;;21.57;58.90;100934.81;5030647;28;1839;-39
2021/07/23 09:43:12;;;;;;;;;;;;;;;21.58;58.75;100923.03;5024467;28;1976;-39
2021/07/23 09:45:39;;;;;;;;;;;;;;;21.57;58.69;100924.06;5040214;28;1983;-39
2021/07/23 09:50:54;;;;;;;;;;;;;;;21.52;58.38;100916.41;5030776;28;2493;-39
2021/07/23 09:53:23;;;;;;;;;;;;;;;21.49;59.40;100926.59;5036047;28;1138;-39
2021/07/23 09:55:55;;;;;;;;;;;;;;;21.57;58.27;100919.50;5030052;28;1989;-38
2021/07/23 09:58:22;;;;;;;;;;;;;;;21.57;58.14;100918.66;5018131;28;1953;-39
2021/07/23 10:00:53;;;;;;;;;;;;;;;21.54;59.09;100932.41;5019774;28;1776;-39
2021/07/23 10:03:21;;;;;;;;;;;;;;;21.58;59.29;100912.28;4994132;28;1731;-39
2021/07/23 10:05:54;;;;;;;;;;;;;;;21.84;58.44;100915.97;4994395;28;1985;-39
2021/07/23 10:08:30;;;;;;;;;;;;;;;22.10;59.20;100907.13;4991054;28;1165;-39
2021/07/23 10:11:02;;;;;;;;;;;;;;;22.30;60.40;100921.34;4994213;28;1895;-39
2021/07/23 10:13:33;;;;;;;;;;;;;;;22.44;60.14;100911.88;4982503;28;2019;-40
2021/07/23 10:16:01;;;;;;;;;;;;;;;22.64;62.82;100913.41;4993995;28;1977;-39
2021/07/23 10:18:28;;;;;;;;;;;;;;;22.86;63.22;100910.34;4989285;28;1544;-39
2021/07/23 10:20:55;;;;;;;;;;;;;;;22.94;63.33;100897.81;4992647;28;1940;-39
2021/07/23 10:23:31;;;;;;;;;;;;;;;23.08;63.97;100898.22;4996221;28;1158;-40
2021/07/23 10:26:04;;;;;;;;;;;;;;;23.21;64.10;100899.50;4994593;28;1902;-40
2021/07/23 10:28:53;;;;;;;;;;;;;;;23.26;64.23;100907.13;4990994;28;1839;-39
2021/07/23 10:31:42;;;;;;;;;;;;;;;23.38;63.96;100907.69;4987076;28;1910;-40
2021/07/23 10:34:11;;;;;;;;;;;;;;;23.46;63.66;100898.75;4985339;28;1126;-40
2021/07/23 10:36:39;;;;;;;;;;;;;;;23.49;64.30;100895.75;4992147;28;2047;-40
2021/07/23 10:39:19;;;;;;;;;;;;;;;23.58;63.65;100892.09;4985055;28;1714;-40
2021/07/23 10:42:03;;;;;;;;;;;;;;;23.74;63.07;100899.41;4991345;28;1547;-40
2021/07/23 10:44:44;;;;;;;;;;;;;;;23.68;63.68;100886.56;4987929;28;1779;-40
2021/07/23 10:47:12;;;;;;;;;;;;;;;23.51;61.83;100893.75;4991760;28;1552;-40
2021/07/23 10:49:48;;;;;;;;;;;;;;;23.12;61.47;100876.19;4990867;28;1667;-40
2021/07/23 10:52:28;;;;;;;;;;;;;;;22.84;61.65;100886.28;4985053;28;1007;-40
2021/07/23 10:55:16;;;;;;;;;;;;;;;22.80;61.65;100874.09;4986668;28;1736;-39
2021/07/23 10:57:43;;;;;;;;;;;;;;;22.76;61.90;100878.09;4986675;28;1871;-39
2021/07/23 11:00:10;;;;;;;;;;;;;;;22.75;61.55;100882.66;4993641;28;1831;-40
2021/07/23 11:02:45;;;;;;;;;;;;;;;22.69;61.55;100875.19;5018906;28;1555;-39
2021/07/23 11:05:16;;;;;;;;;;;;;;;22.73;61.56;100878.44;5032608;28;1980;-40
2021/07/23 11:07:43;;;;;;;;;;;;;;;22.67;61.40;100868.28;5029668;28;1950;-40
2021/07/23 11:10:12;;;;;;;;;;;;;;;22.66;61.38;100877.34;5027482;28;1864;-40
2021/07/23 11:12:40;;;;;;;;;;;;;;;22.61;61.46;100867.06;5028546;28;1706;-40
2021/07/23 11:15:07;;;;;;;;;;;;;;;22.72;61.19;100865.94;5028848;28;1625;-40
2021/07/23 11:17:34;;;;;;;;;;;;;;;22.67;61.50;100879.06;5024905;28;1578;-40
2021/07/23 11:20:03;;;;;;;;;;;;;;;22.73;62.58;100852.31;5027873;28;1703;-40
2021/07/23 11:22:32;;;;;;;;;;;;;;;22.86;63.04;100864.53;5028912;28;1231;-40
2021/07/23 11:24:59;;;;;;;;;;;;;;;22.89;63.30;100851.56;5031557;28;1963;-39
2021/07/23 11:27:26;;;;;;;;;;;;;;;22.91;64.48;100838.78;5027742;28;1483;-40
2021/07/23 11:29:53;;;;;;;;;;;;;;;22.96;64.75;100844.56;5030903;28;1560;-40
2021/07/23 11:32:20;;;;;;;;;;;;;;;22.98;65.65;100834.44;5030679;28;1502;-40
2021/07/23 11:34:47;;;;;;;;;;;;;;;23.10;65.87;100858.47;5024392;28;1487;-39
2021/07/23 11:37:16;;;;;;;;;;;;;;;23.13;66.03;100855.44;5029823;28;1452;-40
2021/07/23 11:39:49;;;;;;;;;;;;;;;23.20;66.06;100843.03;5026935;28;1682;-40
2021/07/23 11:42:15;;;;;;;;;;;;;;;23.13;66.46;100859.00;5032223;28;1545;-39
2021/07/23 11:44:50;;;;;;;;;;;;;;;23.18;66.67;100850.44;5031834;28;1581;-40
2021/07/23 11:47:16;;;;;;;;;;;;;;;23.31;65.89;100845.41;5030641;28;1963;-40
2021/07/23 11:49:43;;;;;;;;;;;;;;;23.40;65.04;100836.34;5030441;28;1771;-39
2021/07/23 11:52:09;;;;;;;;;;;;;;;23.15;64.21;100826.47;5032568;28;1720;-40
2021/07/23 11:54:37;;;;;;;;;;;;;;;22.98;63.74;100839.84;5030230;28;1545;-40
2021/07/23 11:57:04;;;;;;;;;;;;;;;22.92;65.27;100837.78;5020909;28;1614;-39
2021/07/23 11:59:36;;;;;;;;;;;;;;;23.04;65.71;100846.47;5029483;28;1507;-40
2021/07/23 12:02:07;;;;;;;;;;;;;;;23.00;65.74;100827.03;5032625;28;1692;-39
2021/07/23 12:04:33;;;;;;;;;;;;;;;23.01;65.94;100819.78;5029454;28;1941;-40
2021/07/23 12:07:00;;;;;;;;;;;;;;;23.14;65.43;100830.16;5025710;28;1949;-40
2021/07/23 12:09:26;;;;;;;;;;;;;;;23.22;65.21;100841.00;5028233;28;1848;-40
2021/07/23 12:11:55;;;;;;;;;;;;;;;23.30;65.10;100827.56;5024849;28;1798;-40
2021/07/23 12:14:25;;;;;;;;;;;;;;;23.33;64.83;100823.66;5022331;28;1731;-40
2021/07/23 12:16:52;;;;;;;;;;;;;;;23.32;64.75;100824.69;5029880;28;1705;-39
2021/07/23 12:19:20;;;;;;;;;;;;;;;23.37;64.80;100827.72;5031644;28;1112;-40
2021/07/23 12:21:46;;;;;;;;;;;;;;;23.36;64.58;100818.81;5030066;28;1835;-40
2021/07/23 12:24:13;;;;;;;;;;;;;;;23.40;64.45;100813.94;5022406;28;1538;-40
2021/07/23 12:26:40;;;;;;;;;;;;;;;23.42;64.61;100822.69;5030274;28;1979;-40
2021/07/23 12:29:09;;;;;;;;;;;;;;;23.12;63.86;100807.88;5025653;28;1513;-40
2021/07/23 12:31:37;;;;;;;;;;;;;;;22.93;63.85;100817.88;5022677;28;1475;-40
2021/07/23 12:34:07;;;;;;;;;;;;;;;22.90;65.32;100811.97;5026777;28;1483;-40
2021/07/23 12:36:44;;;;;;;;;;;;;;;22.90;65.69;100820.91;5029827;28;1644;-39
2021/07/23 12:39:11;;;;;;;;;;;;;;;22.98;65.97;100807.47;5029548;28;1647;-40
2021/07/23 12:41:40;;;;;;;;;;;;;;;23.10;65.76;100799.13;5030044;28;1369;-40
2021/07/23 12:44:08;;;;;;;;;;;;;;;23.20;64.99;100818.75;5029916;28;1455;-40
2021/07/23 12:46:35;;;;;;;;;;;;;;;23.12;65.15;100813.28;5030962;28;1905;-39
2021/07/23 12:49:11;;;;;;;;;;;;;;;23.19;65.12;100804.38;5028642;28;1460;-39
2021/07/23 12:51:38;;;;;;;;;;;;;;;23.26;64.87;100793.81;5028780;28;1927;-40
2021/07/23 12:54:04;;;;;;;;;;;;;;;23.37;64.57;100790.78;5029528;28;1553;-40
2021/07/23 12:56:31;;;;;;;;;;;;;;;23.54;64.12;100796.25;5030113;28;1462;-40
2021/07/23 12:58:58;;;;;;;;;;;;;;;23.66;63.72;100794.94;5026456;28;1608;-41
2021/07/23 13:01:26;;;;;;;;;;;;;;;23.84;63.61;100786.72;5031425;28;1867;-40
2021/07/23 13:03:54;;;;;;;;;;;;;;;23.92;62.74;100791.28;5027378;28;1726;-40
2021/07/23 13:06:21;;;;;;;;;;;;;;;23.97;63.16;100791.63;5029120;28;1976;-40